createdAt,value
2019-04-11T00:00:09.049Z,1.72
2019-04-11T00:02:40.557Z,0.90
2019-04-11T00:05:10.605Z,1.35
2019-04-11T00:07:40.535Z,1.27
2019-04-11T00:10:14.406Z,1.15
2019-04-11T00:15:20.735Z,0.90
2019-04-11T00:17:50.212Z,1.65
2019-04-11T00:20:20.591Z,1.70
2019-04-11T00:22:49.941Z,0.88
2019-04-11T00:25:20.361Z,1.92
2019-04-11T00:27:49.690Z,1.85
2019-04-11T00:30:19.838Z,0.95
2019-04-11T00:32:50.284Z,1.87
2019-04-11T00:35:19.768Z,1.12
2019-04-11T00:37:52.214Z,1.67
2019-04-11T00:40:21.611Z,1.40
2019-04-11T00:42:50.963Z,1.90
2019-04-11T00:56:36.653Z,1.23
2019-04-11T00:59:06.042Z,0.90
2019-04-11T01:01:35.686Z,1.12
2019-04-11T01:04:05.002Z,0.78
2019-04-11T01:06:34.411Z,1.92
2019-04-11T01:09:06.289Z,0.80
2019-04-11T01:11:36.397Z,1.42
2019-04-11T01:14:07.728Z,0.93
2019-04-11T01:16:45.094Z,0.75
2019-04-11T01:19:16.353Z,2.10
2019-04-11T01:21:45.686Z,0.90
2019-04-11T01:24:15.630Z,1.75
2019-04-11T01:26:45.523Z,1.47
2019-04-11T01:29:15.446Z,0.90
2019-04-11T01:31:46.362Z,1.37
2019-04-11T01:34:16.193Z,1.75
2019-04-11T01:36:45.551Z,0.90
2019-04-11T01:39:32.797Z,1.35
2019-04-11T01:42:02.768Z,1.87
2019-04-11T01:44:33.121Z,0.95
2019-04-11T01:47:03.162Z,1.27
2019-04-11T01:49:32.445Z,1.82
2019-04-11T01:52:04.747Z,1.25
2019-04-11T01:54:33.570Z,1.72
2019-04-11T01:57:03.499Z,1.95
2019-04-11T01:59:32.815Z,1.42
2019-04-11T02:02:15.682Z,1.52
2019-04-11T02:04:46.616Z,1.55
2019-04-11T02:07:15.957Z,1.50
2019-04-11T02:09:46.285Z,2.12
2019-04-11T02:12:16.284Z,1.52
2019-04-11T02:14:45.938Z,1.10
2019-04-11T02:17:15.216Z,1.30
2019-04-11T02:19:44.776Z,1.37
2019-04-11T02:22:32.730Z,1.55
2019-04-11T02:25:06.387Z,2.05
2019-04-11T02:27:37.343Z,1.60
2019-04-11T02:30:08.612Z,1.32
2019-04-11T02:32:38.030Z,1.02
2019-04-11T02:35:08.496Z,1.12
2019-04-11T02:37:38.403Z,1.50
2019-04-11T02:40:08.968Z,1.72
2019-04-11T02:42:39.214Z,2.08
2019-04-11T02:45:19.658Z,2.02
2019-04-11T02:47:41.977Z,1.40
2019-04-11T02:50:12.486Z,1.20
2019-04-11T02:52:42.215Z,1.37
2019-04-11T02:55:13.006Z,1.82
2019-04-11T02:57:43.077Z,1.85
2019-04-11T03:00:13.104Z,1.52
2019-04-11T03:02:44.375Z,2.08
2019-04-11T03:05:13.828Z,2.17
2019-04-11T03:07:43.184Z,1.32
2019-04-11T03:10:14.106Z,1.40
2019-04-11T03:12:44.301Z,2.37
2019-04-11T03:15:28.962Z,1.67
2019-04-11T03:17:47.898Z,1.55
2019-04-11T03:20:26.397Z,1.72
2019-04-11T03:22:54.105Z,1.22
2019-04-11T03:25:17.981Z,1.05
2019-04-11T03:27:47.929Z,2.37
2019-04-11T03:30:24.851Z,1.30
2019-04-11T03:33:50.338Z,1.62
2019-04-11T03:36:07.491Z,1.30
2019-04-11T03:38:12.385Z,1.22
2019-04-11T03:40:38.524Z,2.15
2019-04-11T03:43:06.263Z,2.02
2019-04-11T03:45:45.181Z,1.70
2019-04-11T03:48:10.510Z,1.10
2019-04-11T03:50:30.497Z,1.70
2019-04-11T03:52:59.460Z,1.65
2019-04-11T03:55:30.047Z,1.40
2019-04-11T03:58:01.020Z,1.10
2019-04-11T04:00:35.780Z,1.45
2019-04-11T04:03:01.651Z,1.85
2019-04-11T04:05:34.698Z,1.17
2019-04-11T04:08:04.552Z,2.50
2019-04-11T04:10:36.159Z,1.82
2019-04-11T04:13:09.917Z,1.95
2019-04-11T04:16:00.117Z,0.68
2019-04-11T04:18:19.318Z,1.47
2019-04-11T04:21:10.616Z,1.80
2019-04-11T04:23:43.232Z,1.05
2019-04-11T04:26:12.601Z,2.10
2019-04-11T04:28:42.970Z,1.55
2019-04-11T04:31:14.012Z,1.25
2019-04-11T04:33:45.325Z,1.20
2019-04-11T04:36:16.017Z,1.75
2019-04-11T04:38:46.452Z,1.22
2019-04-11T04:41:28.217Z,1.80
2019-04-11T04:43:48.110Z,1.52
2019-04-11T04:46:35.074Z,1.62
2019-04-11T04:48:51.035Z,1.00
2019-04-11T04:51:21.727Z,1.00
2019-04-11T04:53:52.100Z,1.75
2019-04-11T04:56:26.429Z,2.12
2019-04-11T04:58:54.077Z,2.20
2019-04-11T05:01:23.830Z,1.70
2019-04-11T05:03:54.061Z,1.82
2019-04-11T05:06:24.121Z,1.82
2019-04-11T05:08:53.450Z,1.67
2019-04-11T05:11:23.158Z,1.67
2019-04-11T05:13:52.609Z,2.55
2019-04-11T05:16:21.850Z,0.93
2019-04-11T05:18:51.116Z,2.10
2019-04-11T05:21:21.369Z,1.90
2019-04-11T05:23:50.608Z,2.02
2019-04-11T05:26:19.873Z,2.00
2019-04-11T05:28:49.130Z,2.17
2019-04-11T05:31:18.556Z,1.95
2019-04-11T05:33:49.718Z,1.47
2019-04-11T05:36:18.998Z,2.50
2019-04-11T05:38:48.667Z,1.32
2019-04-11T05:41:20.525Z,2.00
2019-04-11T05:43:49.366Z,2.05
2019-04-11T05:46:31.189Z,1.62
2019-04-11T05:48:51.188Z,1.47
2019-04-11T05:51:23.363Z,2.42
2019-04-11T05:53:54.521Z,1.30
2019-04-11T05:56:25.628Z,2.05
2019-04-11T05:58:57.700Z,1.27
2019-04-11T06:01:29.118Z,1.87
2019-04-11T06:04:00.500Z,2.05
2019-04-11T06:06:36.948Z,1.52
2019-04-11T06:09:10.395Z,1.15
2019-04-11T06:11:55.038Z,2.17
2019-04-11T06:14:27.987Z,1.70
2019-04-11T06:19:48.202Z,1.82
2019-04-11T06:22:19.735Z,1.52
2019-04-11T06:25:03.552Z,1.65
2019-04-11T06:27:42.225Z,1.95
2019-04-11T06:30:28.424Z,2.27
2019-04-11T06:33:12.234Z,1.30
2019-04-11T06:38:20.771Z,1.37
2019-04-11T06:40:52.462Z,2.22
2019-04-11T06:43:26.315Z,2.20
2019-04-11T06:48:45.521Z,2.22
2019-04-11T06:51:16.386Z,1.27
2019-04-11T06:53:50.457Z,1.42
2019-04-11T06:56:21.389Z,1.80
2019-04-11T06:58:53.598Z,1.37
2019-04-11T07:01:28.199Z,1.25
2019-04-11T07:03:59.094Z,2.47
2019-04-11T07:06:30.016Z,1.98
2019-04-11T07:09:10.063Z,2.40
2019-04-11T07:11:52.948Z,1.77
2019-04-11T07:14:33.259Z,1.87
2019-04-11T07:17:21.087Z,1.42
2019-04-11T07:20:07.175Z,1.40
2019-04-11T07:22:53.850Z,2.75
2019-04-11T07:25:41.103Z,1.72
2019-04-11T07:28:12.034Z,1.67
2019-04-11T07:31:00.332Z,2.77
2019-04-11T07:33:31.438Z,2.72
2019-04-11T07:36:18.591Z,2.45
2019-04-11T07:39:07.653Z,2.72
2019-04-11T07:41:39.621Z,1.40
2019-04-11T07:44:17.612Z,2.10
2019-04-11T07:46:51.631Z,2.67
2019-04-11T07:49:38.934Z,2.58
2019-04-11T07:52:15.894Z,2.45
2019-04-11T07:54:45.629Z,2.50
2019-04-11T07:57:19.440Z,2.27
2019-04-11T07:59:56.244Z,2.25
2019-04-11T08:02:43.499Z,2.27
2019-04-11T08:05:30.468Z,1.98
2019-04-11T08:08:01.361Z,2.98
2019-04-11T08:10:33.026Z,2.92
2019-04-11T08:13:03.987Z,2.75
2019-04-11T08:15:51.095Z,2.25
2019-04-11T08:18:34.992Z,3.98
2019-04-11T08:21:21.994Z,2.62
2019-04-11T08:23:54.107Z,3.80
2019-04-11T08:26:42.242Z,2.05
2019-04-11T08:29:14.570Z,2.75
2019-04-11T08:32:00.574Z,2.83
2019-04-11T08:34:31.467Z,2.50
2019-04-11T08:37:19.313Z,2.75
2019-04-11T08:39:49.178Z,2.62
2019-04-11T08:42:37.347Z,2.45
2019-04-11T08:45:08.692Z,3.47
2019-04-11T08:47:46.818Z,3.60
2019-04-11T08:50:12.301Z,3.65
2019-04-11T08:52:44.346Z,3.55
2019-04-11T08:55:17.155Z,2.85
2019-04-11T08:57:47.901Z,2.65
2019-04-11T09:00:24.486Z,3.83
2019-04-11T09:02:59.529Z,3.35
2019-04-11T09:05:33.417Z,3.55
2019-04-11T09:11:12.774Z,1.75
2019-04-11T09:13:49.800Z,2.60
2019-04-11T09:16:35.522Z,3.75
2019-04-11T09:19:06.433Z,2.77
2019-04-11T09:21:53.458Z,3.50
2019-04-11T09:24:24.365Z,3.17
2019-04-11T09:26:56.186Z,3.15
2019-04-11T09:29:28.419Z,2.50
2019-04-11T09:32:00.127Z,4.45
2019-04-11T09:34:31.081Z,3.22
2019-04-11T09:37:03.064Z,2.85
2019-04-11T09:39:37.257Z,2.72
2019-04-11T09:42:19.801Z,3.10
2019-04-11T09:44:49.522Z,2.60
2019-04-11T09:47:36.244Z,2.60
2019-04-11T09:50:18.205Z,2.33
2019-04-11T09:52:49.589Z,3.27
2019-04-11T09:55:29.567Z,2.35
2019-04-11T09:58:01.199Z,3.30
2019-04-11T10:00:36.690Z,3.15
2019-04-11T10:03:08.734Z,3.50
2019-04-11T10:05:42.665Z,3.12
2019-04-11T10:11:08.008Z,3.22
2019-04-11T10:13:51.289Z,3.83
2019-04-11T10:16:22.188Z,2.43
2019-04-11T10:18:53.634Z,2.83
2019-04-11T10:21:25.859Z,3.58
2019-04-11T10:23:57.002Z,3.17
2019-04-11T10:26:27.920Z,3.98
2019-04-11T10:29:00.164Z,2.70
2019-04-11T10:31:31.133Z,2.87
2019-04-11T10:34:11.313Z,4.45
2019-04-11T10:36:43.324Z,3.83
2019-04-11T10:39:22.893Z,3.77
2019-04-11T10:41:57.868Z,3.45
2019-04-11T10:44:29.816Z,4.12
2019-04-11T10:47:01.986Z,3.15
2019-04-11T10:49:33.013Z,3.52
2019-04-11T10:52:15.805Z,3.67
2019-04-11T10:54:47.424Z,4.45
2019-04-11T10:57:36.211Z,4.55
2019-04-11T11:00:15.638Z,3.22
2019-04-11T11:02:58.334Z,3.75
2019-04-11T11:05:30.435Z,4.47
2019-04-11T11:08:01.406Z,3.85
2019-04-11T11:10:33.252Z,3.20
2019-04-11T11:13:16.202Z,5.12
2019-04-11T11:15:47.558Z,4.15
2019-04-11T11:18:54.002Z,3.92
2019-04-11T11:21:05.704Z,4.15
2019-04-11T11:23:54.629Z,4.00
2019-04-11T11:26:24.806Z,3.75
2019-04-11T11:29:07.104Z,4.35
2019-04-11T11:31:36.187Z,3.75
2019-04-11T11:34:09.156Z,3.58
2019-04-11T11:36:43.744Z,3.60
2019-04-11T11:39:33.352Z,4.12
2019-04-11T11:42:20.385Z,3.58
2019-04-11T11:45:07.521Z,3.60
2019-04-11T11:47:55.282Z,4.37
2019-04-11T11:50:31.849Z,2.95
2019-04-11T11:53:18.473Z,3.45
2019-04-11T11:55:49.568Z,3.50
2019-04-11T11:58:37.531Z,3.55
2019-04-11T12:01:09.373Z,3.20
2019-04-11T12:03:46.742Z,3.45
2019-04-11T12:06:22.314Z,4.05
2019-04-11T12:08:56.072Z,3.22
2019-04-11T12:11:26.340Z,3.85
2019-04-11T12:14:13.751Z,3.42
2019-04-11T12:17:01.197Z,3.42
2019-04-11T12:22:00.244Z,3.45
2019-04-11T12:24:34.430Z,3.40
2019-04-11T12:27:11.583Z,3.20
2019-04-11T12:30:01.405Z,4.10
2019-04-11T12:32:39.006Z,3.85
2019-04-11T12:35:24.282Z,4.65
2019-04-11T12:37:57.919Z,3.55
2019-04-11T12:40:46.809Z,4.90
2019-04-11T12:43:17.164Z,3.30
2019-04-11T12:45:50.794Z,4.03
2019-04-11T12:48:21.865Z,3.37
2019-04-11T12:50:55.706Z,2.65
2019-04-11T12:53:24.988Z,4.05
2019-04-11T12:55:55.900Z,3.80
2019-04-11T12:58:35.394Z,4.78
2019-04-11T13:01:22.607Z,3.40
2019-04-11T13:04:11.418Z,3.65
2019-04-11T13:06:42.316Z,4.05
2019-04-11T13:09:19.295Z,3.37
2019-04-11T13:11:59.208Z,3.30
2019-04-11T13:14:30.125Z,5.15
2019-04-11T13:17:10.011Z,4.00
2019-04-11T13:19:46.835Z,3.65
2019-04-11T13:22:17.802Z,3.75
2019-04-11T13:24:51.460Z,2.75
2019-04-11T13:27:22.382Z,4.37
2019-04-11T13:30:05.371Z,4.00
2019-04-11T13:32:45.423Z,4.28
2019-04-11T13:35:25.269Z,4.17
2019-04-11T13:38:12.415Z,3.62
2019-04-11T13:40:46.253Z,3.27
2019-04-11T13:43:20.140Z,2.98
2019-04-11T13:48:48.208Z,3.05
2019-04-11T13:51:31.004Z,5.00
2019-04-11T13:54:16.751Z,4.03
2019-04-11T13:57:05.710Z,4.70
2019-04-11T13:59:36.617Z,3.60
2019-04-11T14:02:07.611Z,3.37
2019-04-11T14:04:41.528Z,4.50
2019-04-11T14:09:42.690Z,2.77
2019-04-11T14:12:12.135Z,3.92
2019-04-11T14:14:41.966Z,4.15
2019-04-11T14:17:12.865Z,3.22
2019-04-11T14:19:43.757Z,3.08
2019-04-11T14:22:14.678Z,3.15
2019-04-11T14:24:51.519Z,3.62
2019-04-11T14:27:25.358Z,3.83
2019-04-11T14:30:07.970Z,3.95
2019-04-11T14:32:44.811Z,4.40
2019-04-11T14:35:32.087Z,3.80
2019-04-11T14:38:02.996Z,4.10
2019-04-11T14:40:36.632Z,3.87
2019-04-11T14:43:16.878Z,3.45
2019-04-11T14:45:53.773Z,3.58
2019-04-11T14:48:40.060Z,3.52
2019-04-11T14:51:15.982Z,3.50
2019-04-11T14:53:46.309Z,5.00
2019-04-11T14:56:16.950Z,4.03
2019-04-11T14:59:03.978Z,3.77
2019-04-11T15:01:33.302Z,3.77
2019-04-11T15:04:19.309Z,5.70
2019-04-11T15:06:56.026Z,3.67
2019-04-11T15:09:46.461Z,3.90
2019-04-11T15:12:18.673Z,3.80
2019-04-11T15:17:41.990Z,2.92
2019-04-11T15:20:27.894Z,3.42
2019-04-11T15:23:06.683Z,3.47
2019-04-11T15:25:46.253Z,3.80
2019-04-11T15:28:20.545Z,3.83
2019-04-11T15:30:53.975Z,3.47
2019-04-11T15:33:40.955Z,3.83
2019-04-11T15:36:11.886Z,3.33
2019-04-11T15:38:49.050Z,2.85
2019-04-11T15:41:18.293Z,3.80
2019-04-11T15:43:58.111Z,4.28
2019-04-11T15:46:29.015Z,4.15
2019-04-11T15:49:21.250Z,2.92
2019-04-11T15:51:50.630Z,4.25
2019-04-11T15:54:37.843Z,3.67
2019-04-11T15:57:12.282Z,3.50
2019-04-11T15:59:43.825Z,3.70
2019-04-11T16:02:30.135Z,3.60
2019-04-11T16:05:02.098Z,3.95
2019-04-11T16:07:47.031Z,2.80
2019-04-11T16:10:16.765Z,4.30
2019-04-11T16:12:48.651Z,2.90
2019-04-11T16:15:23.292Z,3.37
2019-04-11T16:18:10.620Z,3.33
2019-04-11T16:20:39.991Z,4.20
2019-04-11T16:23:10.879Z,3.95
2019-04-11T16:25:40.394Z,3.60
2019-04-11T16:28:21.030Z,4.62
2019-04-11T16:30:57.994Z,3.50
2019-04-11T16:33:31.842Z,3.52
2019-04-11T16:39:08.714Z,3.67
2019-04-11T16:41:48.847Z,3.55
2019-04-11T16:44:34.666Z,3.47
2019-04-11T16:47:08.185Z,3.87
2019-04-11T16:49:36.478Z,3.22
2019-04-11T16:52:08.311Z,4.12
2019-04-11T16:54:40.011Z,3.58
2019-04-11T16:57:13.559Z,3.17
2019-04-11T16:59:41.286Z,4.17
2019-04-11T17:02:10.619Z,3.12
2019-04-11T17:04:47.230Z,3.55
2019-04-11T17:07:26.157Z,3.15
2019-04-11T17:09:56.837Z,4.50
2019-04-11T17:12:27.220Z,2.70
2019-04-11T17:14:58.283Z,2.70
2019-04-11T17:17:30.616Z,3.72
2019-04-11T17:20:05.904Z,3.67
2019-04-11T17:22:34.184Z,2.92
2019-04-11T17:25:04.179Z,4.03
2019-04-11T17:27:33.538Z,3.70
2019-04-11T17:30:02.857Z,3.22
2019-04-11T17:32:32.179Z,4.03
2019-04-11T17:35:01.961Z,4.45
2019-04-11T17:37:33.232Z,3.12
2019-04-11T17:40:06.605Z,3.35
2019-04-11T17:42:36.823Z,3.10
2019-04-11T17:45:06.273Z,3.20
2019-04-11T17:47:35.612Z,3.33
2019-04-11T17:50:06.070Z,3.00
2019-04-11T17:52:37.349Z,3.22
2019-04-11T17:55:06.707Z,3.10
2019-04-11T17:57:35.939Z,2.95
2019-04-11T18:00:08.524Z,3.33
2019-04-11T18:02:39.053Z,2.90
2019-04-11T18:05:08.871Z,3.33
2019-04-11T18:07:38.142Z,3.30
2019-04-11T18:10:07.575Z,3.22
2019-04-11T18:12:37.819Z,3.60
2019-04-11T18:15:07.570Z,3.42
2019-04-11T18:17:36.941Z,3.50
2019-04-11T18:20:08.458Z,3.37
2019-04-11T18:22:39.669Z,3.42
2019-04-11T18:25:10.934Z,2.30
2019-04-11T18:27:51.584Z,3.10
2019-04-11T18:30:14.558Z,4.03
2019-04-11T18:32:43.828Z,3.55
2019-04-11T18:35:13.251Z,3.45
2019-04-11T18:37:42.573Z,3.37
2019-04-11T18:40:13.466Z,2.98
2019-04-11T18:42:42.839Z,4.45
2019-04-11T18:45:14.982Z,3.27
2019-04-11T18:47:44.330Z,3.50
2019-04-11T18:50:13.795Z,2.62
2019-04-11T18:52:43.559Z,3.27
2019-04-11T18:55:12.817Z,3.45
2019-04-11T18:57:42.046Z,3.33
2019-04-11T19:00:13.839Z,2.65
2019-04-11T19:02:43.166Z,4.08
2019-04-11T19:05:13.365Z,3.42
2019-04-11T19:07:43.610Z,3.77
2019-04-11T19:10:15.000Z,4.40
2019-04-11T19:12:46.208Z,3.30
2019-04-11T19:15:16.712Z,3.80
2019-04-11T19:17:47.068Z,3.52
2019-04-11T19:20:18.881Z,3.60
2019-04-11T19:22:48.523Z,4.05
2019-04-11T19:25:17.763Z,2.95
2019-04-11T19:27:50.427Z,2.60
2019-04-11T19:30:17.857Z,3.33
2019-04-11T19:32:48.378Z,3.25
2019-04-11T19:35:17.706Z,3.12
2019-04-11T19:37:47.040Z,2.92
2019-04-11T19:40:17.037Z,4.08
2019-04-11T19:42:48.776Z,3.95
2019-04-11T19:45:19.538Z,3.92
2019-04-11T19:47:51.691Z,3.52
2019-04-11T19:50:19.070Z,3.72
2019-04-11T19:52:48.334Z,3.25
2019-04-11T19:55:21.945Z,2.92
2019-04-11T19:57:51.286Z,4.40
2019-04-11T20:00:21.602Z,3.77
2019-04-11T20:02:51.854Z,3.83
2019-04-11T20:05:22.222Z,3.65
2019-04-11T20:07:51.509Z,3.30
2019-04-11T20:10:20.741Z,3.98
2019-04-11T20:12:50.010Z,3.50
2019-04-11T20:15:19.262Z,4.35
2019-04-11T20:17:52.034Z,3.22
2019-04-11T20:20:19.463Z,3.45
2019-04-11T20:22:58.453Z,3.67
2019-04-11T20:25:19.603Z,3.92
2019-04-11T20:27:50.691Z,3.22
2019-04-11T20:30:19.730Z,3.25
2019-04-11T20:32:48.982Z,3.10
2019-04-11T20:35:28.455Z,3.02
2019-04-11T20:37:50.405Z,3.30
2019-04-11T20:40:22.364Z,3.62
2019-04-11T20:42:54.046Z,3.40
2019-04-11T20:45:21.883Z,3.08
2019-04-11T20:47:51.133Z,3.00
2019-04-11T20:50:20.322Z,2.55
2019-04-11T20:52:49.580Z,3.55
2019-04-11T20:55:20.471Z,3.42
2019-04-11T20:57:49.810Z,3.22
2019-04-11T21:00:19.092Z,3.42
2019-04-11T21:02:48.358Z,3.60
2019-04-11T21:05:17.604Z,4.47
2019-04-11T21:07:46.765Z,3.65
2019-04-11T21:10:15.981Z,3.58
2019-04-11T21:12:45.152Z,3.45
2019-04-11T21:15:15.974Z,3.47
2019-04-11T21:17:45.216Z,4.25
2019-04-11T21:20:14.518Z,3.52
2019-04-11T21:22:43.763Z,2.98
2019-04-11T21:25:12.935Z,4.47
2019-04-11T21:27:42.195Z,3.90
2019-04-11T21:30:11.489Z,3.70
2019-04-11T21:32:40.730Z,3.15
2019-04-11T21:35:09.985Z,4.15
2019-04-11T21:37:39.266Z,3.45
2019-04-11T21:40:09.460Z,4.40
2019-04-11T21:42:38.650Z,3.85
2019-04-11T21:45:07.930Z,4.17
2019-04-11T21:47:38.015Z,2.87
2019-04-11T21:50:09.540Z,4.05
2019-04-11T21:52:38.464Z,3.75
2019-04-11T21:55:07.706Z,4.33
2019-04-11T21:57:37.031Z,3.27
2019-04-11T22:00:09.557Z,3.58
2019-04-11T22:02:40.413Z,2.95
2019-04-11T22:05:09.962Z,4.55
2019-04-11T22:07:39.270Z,4.97
2019-04-11T22:10:08.600Z,3.98
2019-04-11T22:12:40.075Z,3.70
2019-04-11T22:15:11.696Z,3.85
2019-04-11T22:17:39.800Z,3.52
2019-04-11T22:20:09.111Z,4.33
2019-04-11T22:22:38.302Z,3.92
2019-04-11T22:25:07.498Z,3.70
2019-04-11T22:27:36.743Z,4.58
2019-04-11T22:30:07.419Z,3.98
2019-04-11T22:32:37.479Z,2.77
2019-04-11T22:35:06.739Z,3.77
2019-04-11T22:37:36.070Z,3.87
2019-04-11T22:40:09.939Z,3.92
2019-04-11T22:42:39.247Z,3.45
2019-04-11T22:45:09.148Z,3.85
2019-04-11T22:47:38.987Z,3.85
2019-04-11T22:50:10.070Z,4.28
2019-04-11T22:52:39.873Z,3.02
2019-04-11T22:55:11.325Z,3.35
2019-04-11T22:57:43.618Z,3.92
2019-04-11T23:01:06.216Z,3.52
2019-04-11T23:03:55.002Z,4.28
2019-04-11T23:06:24.275Z,4.55
2019-04-11T23:08:53.548Z,3.72
2019-04-11T23:11:22.827Z,4.05
2019-04-11T23:13:52.066Z,3.77
2019-04-11T23:16:21.328Z,3.30
2019-04-11T23:18:50.589Z,3.70
2019-04-11T23:21:19.845Z,3.67
2019-04-11T23:23:49.052Z,4.30
2019-04-11T23:26:18.357Z,3.55
2019-04-11T23:28:47.573Z,4.58
2019-04-11T23:31:19.768Z,3.65
2019-04-11T23:33:51.442Z,4.35
2019-04-11T23:36:21.168Z,3.95
2019-04-11T23:38:52.761Z,3.67
2019-04-11T23:41:21.038Z,3.35
2019-04-11T23:43:50.508Z,4.22
2019-04-11T23:46:21.435Z,3.45
2019-04-11T23:48:54.591Z,4.17
2019-04-11T23:51:25.445Z,4.62
2019-04-11T23:53:52.481Z,3.77
2019-04-11T23:56:21.750Z,3.62
2019-04-11T23:58:50.993Z,3.58
